sensor_id;sensor_type;location;lat;lon;timestamp;P1;durP1;ratioP1;P2;durP2;ratioP2
64716;SDS011;51146;50.274;19.000;2022-09-11T00:01:25;9.00;;;7.73;;
64716;SDS011;51146;50.274;19.000;2022-09-11T00:03:53;9.73;;;8.50;;
64716;SDS011;51146;50.274;19.000;2022-09-11T00:06:24;9.68;;;8.68;;
64716;SDS011;51146;50.274;19.000;2022-09-11T00:08:57;11.18;;;9.25;;
64716;SDS011;51146;50.274;19.000;2022-09-11T00:11:28;12.70;;;8.88;;
64716;SDS011;51146;50.274;19.000;2022-09-11T00:13:56;10.35;;;8.60;;
64716;SDS011;51146;50.274;19.000;2022-09-11T00:16:28;11.63;;;8.65;;
64716;SDS011;51146;50.274;19.000;2022-09-11T00:19:00;11.40;;;8.68;;
64716;SDS011;51146;50.274;19.000;2022-09-11T00:21:29;10.75;;;8.93;;
64716;SDS011;51146;50.274;19.000;2022-09-11T00:23:56;9.65;;;8.40;;
64716;SDS011;51146;50.274;19.000;2022-09-11T00:26:23;9.60;;;8.48;;
64716;SDS011;51146;50.274;19.000;2022-09-11T00:28:50;11.57;;;9.18;;
64716;SDS011;51146;50.274;19.000;2022-09-11T00:31:19;10.38;;;9.27;;
64716;SDS011;51146;50.274;19.000;2022-09-11T00:33:48;10.68;;;8.88;;
64716;SDS011;51146;50.274;19.000;2022-09-11T00:36:16;11.63;;;9.75;;
64716;SDS011;51146;50.274;19.000;2022-09-11T00:38:46;12.15;;;9.80;;
64716;SDS011;51146;50.274;19.000;2022-09-11T00:41:20;11.30;;;9.68;;
64716;SDS011;51146;50.274;19.000;2022-09-11T00:46:23;10.38;;;9.38;;
64716;SDS011;51146;50.274;19.000;2022-09-11T00:48:55;12.40;;;10.20;;
64716;SDS011;51146;50.274;19.000;2022-09-11T00:51:25;11.80;;;10.35;;
64716;SDS011;51146;50.274;19.000;2022-09-11T00:53:56;13.57;;;9.55;;
64716;SDS011;51146;50.274;19.000;2022-09-11T00:56:25;11.80;;;9.63;;
64716;SDS011;51146;50.274;19.000;2022-09-11T00:58:56;9.27;;;8.07;;
64716;SDS011;51146;50.274;19.000;2022-09-11T01:01:24;10.52;;;8.55;;
64716;SDS011;51146;50.274;19.000;2022-09-11T01:03:51;9.40;;;7.63;;
64716;SDS011;51146;50.274;19.000;2022-09-11T01:06:18;10.77;;;7.85;;
64716;SDS011;51146;50.274;19.000;2022-09-11T01:08:46;9.55;;;7.72;;
64716;SDS011;51146;50.274;19.000;2022-09-11T01:28:22;7.15;;;5.30;;
64716;SDS011;51146;50.274;19.000;2022-09-11T01:31:13;8.90;;;5.15;;
64716;SDS011;51146;50.274;19.000;2022-09-11T01:33:54;6.07;;;4.47;;
64716;SDS011;51146;50.274;19.000;2022-09-11T01:36:29;6.68;;;4.72;;
64716;SDS011;51146;50.274;19.000;2022-09-11T01:39:01;7.43;;;4.72;;
64716;SDS011;51146;50.274;19.000;2022-09-11T01:44:28;6.03;;;4.32;;
64716;SDS011;51146;50.274;19.000;2022-09-11T01:46:59;8.90;;;4.72;;
64716;SDS011;51146;50.274;19.000;2022-09-11T01:49:32;5.75;;;4.55;;
64716;SDS011;51146;50.274;19.000;2022-09-11T01:52:05;6.28;;;4.68;;
64716;SDS011;51146;50.274;19.000;2022-09-11T01:54:40;8.82;;;4.50;;
64716;SDS011;51146;50.274;19.000;2022-09-11T01:57:14;5.80;;;4.20;;
64716;SDS011;51146;50.274;19.000;2022-09-11T01:59:58;8.98;;;4.70;;
64716;SDS011;51146;50.274;19.000;2022-09-11T02:02:29;6.07;;;4.20;;
64716;SDS011;51146;50.274;19.000;2022-09-11T02:05:07;8.57;;;4.70;;
64716;SDS011;51146;50.274;19.000;2022-09-11T02:07:42;5.80;;;4.13;;
64716;SDS011;51146;50.274;19.000;2022-09-11T02:10:17;5.97;;;4.20;;
64716;SDS011;51146;50.274;19.000;2022-09-11T02:12:58;6.93;;;4.95;;
64716;SDS011;51146;50.274;19.000;2022-09-11T02:15:53;6.38;;;4.65;;
64716;SDS011;51146;50.274;19.000;2022-09-11T02:21:16;6.35;;;5.40;;
64716;SDS011;51146;50.274;19.000;2022-09-11T02:23:43;8.02;;;5.15;;
64716;SDS011;51146;50.274;19.000;2022-09-11T02:26:11;6.57;;;5.13;;
64716;SDS011;51146;50.274;19.000;2022-09-11T02:28:40;9.23;;;5.72;;
64716;SDS011;51146;50.274;19.000;2022-09-11T02:31:06;7.63;;;6.47;;
64716;SDS011;51146;50.274;19.000;2022-09-11T02:33:34;9.88;;;6.85;;
64716;SDS011;51146;50.274;19.000;2022-09-11T02:56:07;10.73;;;9.63;;
64716;SDS011;51146;50.274;19.000;2022-09-11T02:58:51;11.52;;;9.75;;
64716;SDS011;51146;50.274;19.000;2022-09-11T03:01:22;12.02;;;9.50;;
64716;SDS011;51146;50.274;19.000;2022-09-11T03:03:49;12.63;;;11.05;;
64716;SDS011;51146;50.274;19.000;2022-09-11T03:06:18;13.80;;;11.10;;
64716;SDS011;51146;50.274;19.000;2022-09-11T03:08:47;11.73;;;10.45;;
64716;SDS011;51146;50.274;19.000;2022-09-11T03:11:14;12.38;;;10.25;;
64716;SDS011;51146;50.274;19.000;2022-09-11T03:13:43;10.90;;;9.88;;
64716;SDS011;51146;50.274;19.000;2022-09-11T03:16:10;11.32;;;10.15;;
64716;SDS011;51146;50.274;19.000;2022-09-11T03:18:38;16.38;;;11.20;;
64716;SDS011;51146;50.274;19.000;2022-09-11T03:21:06;12.05;;;10.75;;
64716;SDS011;51146;50.274;19.000;2022-09-11T03:23:33;15.15;;;10.80;;
64716;SDS011;51146;50.274;19.000;2022-09-11T03:25:59;12.15;;;10.63;;
64716;SDS011;51146;50.274;19.000;2022-09-11T03:28:28;11.73;;;10.52;;
64716;SDS011;51146;50.274;19.000;2022-09-11T03:30:57;11.55;;;10.38;;
64716;SDS011;51146;50.274;19.000;2022-09-11T03:33:24;13.55;;;10.80;;
64716;SDS011;51146;50.274;19.000;2022-09-11T03:35:52;12.65;;;11.35;;
64716;SDS011;51146;50.274;19.000;2022-09-11T03:38:19;13.20;;;9.75;;
64716;SDS011;51146;50.274;19.000;2022-09-11T03:40:46;10.95;;;9.80;;
64716;SDS011;51146;50.274;19.000;2022-09-11T03:43:13;10.95;;;9.38;;
64716;SDS011;51146;50.274;19.000;2022-09-11T03:45:42;10.48;;;9.13;;
64716;SDS011;51146;50.274;19.000;2022-09-11T03:48:10;9.73;;;8.40;;
64716;SDS011;51146;50.274;19.000;2022-09-11T03:50:37;10.63;;;9.52;;
64716;SDS011;51146;50.274;19.000;2022-09-11T03:53:03;9.00;;;8.10;;
64716;SDS011;51146;50.274;19.000;2022-09-11T03:55:30;9.07;;;8.18;;
64716;SDS011;51146;50.274;19.000;2022-09-11T03:57:57;11.82;;;8.65;;
64716;SDS011;51146;50.274;19.000;2022-09-11T04:00:27;8.77;;;7.70;;
64716;SDS011;51146;50.274;19.000;2022-09-11T04:02:54;9.52;;;8.48;;
64716;SDS011;51146;50.274;19.000;2022-09-11T04:05:22;10.35;;;9.20;;
64716;SDS011;51146;50.274;19.000;2022-09-11T04:07:51;10.85;;;9.68;;
64716;SDS011;51146;50.274;19.000;2022-09-11T04:10:18;12.18;;;10.10;;
64716;SDS011;51146;50.274;19.000;2022-09-11T04:12:46;11.98;;;9.85;;
64716;SDS011;51146;50.274;19.000;2022-09-11T04:15:14;12.32;;;9.95;;
64716;SDS011;51146;50.274;19.000;2022-09-11T04:17:41;11.30;;;9.85;;
64716;SDS011;51146;50.274;19.000;2022-09-11T04:20:08;11.00;;;9.85;;
64716;SDS011;51146;50.274;19.000;2022-09-11T04:22:35;13.35;;;10.35;;
64716;SDS011;51146;50.274;19.000;2022-09-11T04:25:02;10.93;;;9.85;;
64716;SDS011;51146;50.274;19.000;2022-09-11T04:27:29;13.80;;;11.00;;
64716;SDS011;51146;50.274;19.000;2022-09-11T04:29:56;12.02;;;10.82;;
64716;SDS011;51146;50.274;19.000;2022-09-11T04:32:22;11.07;;;9.93;;
64716;SDS011;51146;50.274;19.000;2022-09-11T04:34:49;10.90;;;9.80;;
64716;SDS011;51146;50.274;19.000;2022-09-11T04:37:17;11.10;;;9.63;;
64716;SDS011;51146;50.274;19.000;2022-09-11T04:39:45;10.50;;;9.40;;
64716;SDS011;51146;50.274;19.000;2022-09-11T04:42:12;13.93;;;10.23;;
64716;SDS011;51146;50.274;19.000;2022-09-11T04:44:39;9.55;;;8.45;;
64716;SDS011;51146;50.274;19.000;2022-09-11T04:47:05;9.68;;;8.65;;
64716;SDS011;51146;50.274;19.000;2022-09-11T04:49:32;12.40;;;9.20;;
64716;SDS011;51146;50.274;19.000;2022-09-11T04:51:59;10.57;;;9.23;;
64716;SDS011;51146;50.274;19.000;2022-09-11T04:54:31;11.27;;;8.48;;
64716;SDS011;51146;50.274;19.000;2022-09-11T04:57:02;13.02;;;9.25;;
64716;SDS011;51146;50.274;19.000;2022-09-11T04:59:29;11.02;;;9.35;;
64716;SDS011;51146;50.274;19.000;2022-09-11T05:01:56;12.43;;;8.75;;
64716;SDS011;51146;50.274;19.000;2022-09-11T05:04:23;10.43;;;9.32;;
64716;SDS011;51146;50.274;19.000;2022-09-11T05:06:51;12.05;;;9.45;;
64716;SDS011;51146;50.274;19.000;2022-09-11T05:09:18;9.65;;;8.40;;
64716;SDS011;51146;50.274;19.000;2022-09-11T05:11:45;11.68;;;9.68;;
64716;SDS011;51146;50.274;19.000;2022-09-11T05:14:13;10.63;;;9.60;;
64716;SDS011;51146;50.274;19.000;2022-09-11T05:16:40;10.98;;;9.30;;
64716;SDS011;51146;50.274;19.000;2022-09-11T05:19:09;13.77;;;9.20;;
64716;SDS011;51146;50.274;19.000;2022-09-11T05:21:35;12.55;;;9.18;;
64716;SDS011;51146;50.274;19.000;2022-09-11T05:24:02;11.82;;;9.70;;
64716;SDS011;51146;50.274;19.000;2022-09-11T05:26:33;10.50;;;9.48;;
64716;SDS011;51146;50.274;19.000;2022-09-11T05:29:05;11.63;;;10.43;;
64716;SDS011;51146;50.274;19.000;2022-09-11T05:31:36;11.50;;;10.30;;
64716;SDS011;51146;50.274;19.000;2022-09-11T05:34:03;11.00;;;9.85;;
64716;SDS011;51146;50.274;19.000;2022-09-11T05:36:31;11.38;;;10.25;;
64716;SDS011;51146;50.274;19.000;2022-09-11T05:39:00;12.00;;;10.85;;
64716;SDS011;51146;50.274;19.000;2022-09-11T05:41:28;11.98;;;10.05;;
64716;SDS011;51146;50.274;19.000;2022-09-11T05:43:56;11.07;;;8.73;;
64716;SDS011;51146;50.274;19.000;2022-09-11T05:46:23;10.23;;;9.25;;
64716;SDS011;51146;50.274;19.000;2022-09-11T05:48:55;10.65;;;9.50;;
64716;SDS011;51146;50.274;19.000;2022-09-11T05:51:21;11.15;;;10.02;;
64716;SDS011;51146;50.274;19.000;2022-09-11T05:53:51;15.40;;;9.77;;
64716;SDS011;51146;50.274;19.000;2022-09-11T05:56:23;11.75;;;9.98;;
64716;SDS011;51146;50.274;19.000;2022-09-11T05:58:50;12.70;;;10.18;;
64716;SDS011;51146;50.274;19.000;2022-09-11T06:01:19;9.98;;;8.98;;
64716;SDS011;51146;50.274;19.000;2022-09-11T06:03:47;11.70;;;9.73;;
64716;SDS011;51146;50.274;19.000;2022-09-11T06:06:15;10.13;;;8.35;;
64716;SDS011;51146;50.274;19.000;2022-09-11T06:08:49;12.27;;;8.88;;
64716;SDS011;51146;50.274;19.000;2022-09-11T06:11:17;12.30;;;8.48;;
64716;SDS011;51146;50.274;19.000;2022-09-11T06:13:46;10.55;;;7.50;;
64716;SDS011;51146;50.274;19.000;2022-09-11T06:16:15;11.88;;;7.88;;
64716;SDS011;51146;50.274;19.000;2022-09-11T06:18:44;15.40;;;7.68;;
64716;SDS011;51146;50.274;19.000;2022-09-11T06:21:16;9.02;;;7.90;;
64716;SDS011;51146;50.274;19.000;2022-09-11T06:23:46;9.68;;;8.43;;
64716;SDS011;51146;50.274;19.000;2022-09-11T06:26:15;10.90;;;8.70;;
64716;SDS011;51146;50.274;19.000;2022-09-11T06:28:43;11.17;;;7.50;;
64716;SDS011;51146;50.274;19.000;2022-09-11T06:31:14;10.50;;;9.07;;
64716;SDS011;51146;50.274;19.000;2022-09-11T06:33:45;10.23;;;8.13;;
64716;SDS011;51146;50.274;19.000;2022-09-11T06:36:15;9.32;;;7.93;;
64716;SDS011;51146;50.274;19.000;2022-09-11T06:38:45;10.32;;;8.98;;
64716;SDS011;51146;50.274;19.000;2022-09-11T06:41:13;8.80;;;7.95;;
64716;SDS011;51146;50.274;19.000;2022-09-11T06:43:42;9.60;;;8.65;;
64716;SDS011;51146;50.274;19.000;2022-09-11T06:46:11;14.73;;;8.18;;
64716;SDS011;51146;50.274;19.000;2022-09-11T06:48:43;7.30;;;6.30;;
64716;SDS011;51146;50.274;19.000;2022-09-11T06:51:11;7.45;;;5.85;;
64716;SDS011;51146;50.274;19.000;2022-09-11T06:53:43;7.03;;;5.22;;
64716;SDS011;51146;50.274;19.000;2022-09-11T06:56:11;7.80;;;5.68;;
64716;SDS011;51146;50.274;19.000;2022-09-11T06:58:40;6.65;;;5.18;;
64716;SDS011;51146;50.274;19.000;2022-09-11T07:01:08;6.65;;;5.53;;
64716;SDS011;51146;50.274;19.000;2022-09-11T07:03:41;6.75;;;6.05;;
64716;SDS011;51146;50.274;19.000;2022-09-11T07:06:14;7.10;;;6.28;;
64716;SDS011;51146;50.274;19.000;2022-09-11T07:08:49;6.97;;;5.75;;
64716;SDS011;51146;50.274;19.000;2022-09-11T07:11:17;6.70;;;5.82;;
64716;SDS011;51146;50.274;19.000;2022-09-11T07:13:48;8.95;;;6.07;;
64716;SDS011;51146;50.274;19.000;2022-09-11T07:16:15;9.98;;;7.35;;
64716;SDS011;51146;50.274;19.000;2022-09-11T07:18:43;8.55;;;7.28;;
64716;SDS011;51146;50.274;19.000;2022-09-11T07:21:12;8.50;;;7.33;;
64716;SDS011;51146;50.274;19.000;2022-09-11T07:23:41;9.63;;;7.80;;
64716;SDS011;51146;50.274;19.000;2022-09-11T07:26:12;7.80;;;7.00;;
64716;SDS011;51146;50.274;19.000;2022-09-11T07:28:39;7.72;;;6.82;;
64716;SDS011;51146;50.274;19.000;2022-09-11T07:31:07;7.28;;;6.57;;
64716;SDS011;51146;50.274;19.000;2022-09-11T07:36:07;8.35;;;6.72;;
64716;SDS011;51146;50.274;19.000;2022-09-11T07:38:38;8.70;;;6.82;;
64716;SDS011;51146;50.274;19.000;2022-09-11T07:41:07;10.80;;;7.38;;
64716;SDS011;51146;50.274;19.000;2022-09-11T07:43:38;8.48;;;7.68;;
64716;SDS011;51146;50.274;19.000;2022-09-11T07:46:08;9.18;;;8.25;;
64716;SDS011;51146;50.274;19.000;2022-09-11T07:48:35;10.15;;;9.15;;
64716;SDS011;51146;50.274;19.000;2022-09-11T07:51:03;8.88;;;8.00;;
64716;SDS011;51146;50.274;19.000;2022-09-11T07:53:36;9.40;;;8.23;;
64716;SDS011;51146;50.274;19.000;2022-09-11T07:56:04;9.90;;;8.38;;
64716;SDS011;51146;50.274;19.000;2022-09-11T07:58:33;9.43;;;8.38;;
64716;SDS011;51146;50.274;19.000;2022-09-11T08:01:01;9.48;;;8.48;;
64716;SDS011;51146;50.274;19.000;2022-09-11T08:03:30;10.97;;;8.97;;
64716;SDS011;51146;50.274;19.000;2022-09-11T08:06:03;9.68;;;8.68;;
64716;SDS011;51146;50.274;19.000;2022-09-11T08:08:34;9.70;;;8.70;;
64716;SDS011;51146;50.274;19.000;2022-09-11T08:11:04;9.38;;;8.48;;
64716;SDS011;51146;50.274;19.000;2022-09-11T08:13:35;11.50;;;9.77;;
64716;SDS011;51146;50.274;19.000;2022-09-11T08:16:02;10.73;;;9.73;;
64716;SDS011;51146;50.274;19.000;2022-09-11T08:18:29;11.35;;;10.07;;
64716;SDS011;51146;50.274;19.000;2022-09-11T08:21:03;11.55;;;10.40;;
64716;SDS011;51146;50.274;19.000;2022-09-11T08:23:38;9.80;;;8.82;;
64716;SDS011;51146;50.274;19.000;2022-09-11T08:26:10;11.38;;;10.10;;
64716;SDS011;51146;50.274;19.000;2022-09-11T08:28:40;10.55;;;9.45;;
64716;SDS011;51146;50.274;19.000;2022-09-11T08:31:11;10.43;;;9.38;;
64716;SDS011;51146;50.274;19.000;2022-09-11T08:33:38;9.30;;;8.50;;
64716;SDS011;51146;50.274;19.000;2022-09-11T08:36:07;9.38;;;8.45;;
64716;SDS011;51146;50.274;19.000;2022-09-11T08:38:38;9.63;;;8.73;;
64716;SDS011;51146;50.274;19.000;2022-09-11T08:41:24;9.32;;;8.45;;
64716;SDS011;51146;50.274;19.000;2022-09-11T08:46:36;8.90;;;8.10;;
64716;SDS011;51146;50.274;19.000;2022-09-11T08:49:42;7.75;;;7.05;;
64716;SDS011;51146;50.274;19.000;2022-09-11T08:52:04;8.75;;;8.05;;
64716;SDS011;51146;50.274;19.000;2022-09-11T08:54:32;8.00;;;7.20;;
64716;SDS011;51146;50.274;19.000;2022-09-11T09:02:39;7.38;;;6.68;;
64716;SDS011;51146;50.274;19.000;2022-09-11T09:08:28;7.65;;;6.63;;
64716;SDS011;51146;50.274;19.000;2022-09-11T09:17:09;8.65;;;7.75;;
64716;SDS011;51146;50.274;19.000;2022-09-11T09:22:46;8.18;;;7.40;;
64716;SDS011;51146;50.274;19.000;2022-09-11T09:25:20;8.50;;;7.78;;
64716;SDS011;51146;50.274;19.000;2022-09-11T09:27:48;9.98;;;8.27;;
64716;SDS011;51146;50.274;19.000;2022-09-11T09:30:21;10.40;;;8.77;;
64716;SDS011;51146;50.274;19.000;2022-09-11T09:35:42;10.45;;;9.50;;
64716;SDS011;51146;50.274;19.000;2022-09-11T09:38:13;11.35;;;10.25;;
64716;SDS011;51146;50.274;19.000;2022-09-11T09:41:03;12.70;;;10.70;;
64716;SDS011;51146;50.274;19.000;2022-09-11T09:46:47;11.50;;;10.27;;
64716;SDS011;51146;50.274;19.000;2022-09-11T09:49:23;11.23;;;10.13;;
64716;SDS011;51146;50.274;19.000;2022-09-11T09:51:53;11.23;;;10.13;;
64716;SDS011;51146;50.274;19.000;2022-09-11T09:54:27;10.77;;;9.68;;
64716;SDS011;51146;50.274;19.000;2022-09-11T09:56:58;11.68;;;9.93;;
64716;SDS011;51146;50.274;19.000;2022-09-11T09:59:46;10.55;;;9.45;;
64716;SDS011;51146;50.274;19.000;2022-09-11T10:05:18;12.18;;;9.73;;
64716;SDS011;51146;50.274;19.000;2022-09-11T10:08:02;10.88;;;9.77;;
64716;SDS011;51146;50.274;19.000;2022-09-11T10:10:37;13.43;;;10.43;;
64716;SDS011;51146;50.274;19.000;2022-09-11T10:13:21;11.23;;;10.10;;
64716;SDS011;51146;50.274;19.000;2022-09-11T10:15:51;11.20;;;10.10;;
64716;SDS011;51146;50.274;19.000;2022-09-11T10:23:45;10.68;;;9.65;;
64716;SDS011;51146;50.274;19.000;2022-09-11T10:28:51;10.68;;;9.07;;
64716;SDS011;51146;50.274;19.000;2022-09-11T10:31:20;10.90;;;9.80;;
64716;SDS011;51146;50.274;19.000;2022-09-11T10:33:55;9.43;;;8.45;;
64716;SDS011;51146;50.274;19.000;2022-09-11T10:36:27;8.98;;;8.18;;
64716;SDS011;51146;50.274;19.000;2022-09-11T10:38:55;7.00;;;6.30;;
64716;SDS011;51146;50.274;19.000;2022-09-11T10:41:25;8.18;;;7.38;;
64716;SDS011;51146;50.274;19.000;2022-09-11T10:57:25;8.70;;;7.75;;
64716;SDS011;51146;50.274;19.000;2022-09-11T11:00:03;8.48;;;7.57;;
64716;SDS011;51146;50.274;19.000;2022-09-11T11:02:35;7.30;;;6.70;;
64716;SDS011;51146;50.274;19.000;2022-09-11T11:16:36;6.28;;;5.72;;
64716;SDS011;51146;50.274;19.000;2022-09-11T11:22:11;5.88;;;4.85;;
64716;SDS011;51146;50.274;19.000;2022-09-11T11:41:34;4.88;;;4.40;;
64716;SDS011;51146;50.274;19.000;2022-09-11T11:44:14;5.43;;;4.38;;
64716;SDS011;51146;50.274;19.000;2022-09-11T11:47:03;5.50;;;4.00;;
64716;SDS011;51146;50.274;19.000;2022-09-11T11:49:44;5.82;;;4.60;;
64716;SDS011;51146;50.274;19.000;2022-09-11T11:57:34;3.65;;;3.35;;
64716;SDS011;51146;50.274;19.000;2022-09-11T12:00:22;3.83;;;3.38;;
64716;SDS011;51146;50.274;19.000;2022-09-11T12:02:54;4.60;;;3.63;;
64716;SDS011;51146;50.274;19.000;2022-09-11T12:05:30;3.88;;;3.45;;
64716;SDS011;51146;50.274;19.000;2022-09-11T12:07:59;4.22;;;3.83;;
64716;SDS011;51146;50.274;19.000;2022-09-11T12:10:30;4.75;;;4.25;;
64716;SDS011;51146;50.274;19.000;2022-09-11T12:13:05;4.10;;;3.60;;
64716;SDS011;51146;50.274;19.000;2022-09-11T12:15:38;3.60;;;3.30;;
64716;SDS011;51146;50.274;19.000;2022-09-11T12:18:23;4.20;;;3.80;;
64716;SDS011;51146;50.274;19.000;2022-09-11T12:20:50;3.40;;;3.10;;
64716;SDS011;51146;50.274;19.000;2022-09-11T12:23:31;3.85;;;3.55;;
64716;SDS011;51146;50.274;19.000;2022-09-11T12:28:34;3.25;;;2.85;;
64716;SDS011;51146;50.274;19.000;2022-09-11T12:31:02;2.80;;;2.20;;
64716;SDS011;51146;50.274;19.000;2022-09-11T12:36:06;2.90;;;1.90;;
64716;SDS011;51146;50.274;19.000;2022-09-11T12:38:41;2.13;;;1.88;;
64716;SDS011;51146;50.274;19.000;2022-09-11T12:41:31;3.22;;;2.42;;
64716;SDS011;51146;50.274;19.000;2022-09-11T12:44:26;2.75;;;2.47;;
64716;SDS011;51146;50.274;19.000;2022-09-11T12:49:23;4.28;;;2.15;;
64716;SDS011;51146;50.274;19.000;2022-09-11T12:51:53;3.58;;;2.47;;
64716;SDS011;51146;50.274;19.000;2022-09-11T12:54:58;2.63;;;2.20;;
64716;SDS011;51146;50.274;19.000;2022-09-11T12:57:25;2.50;;;2.20;;
64716;SDS011;51146;50.274;19.000;2022-09-11T12:59:56;2.70;;;2.40;;
64716;SDS011;51146;50.274;19.000;2022-09-11T13:02:38;3.10;;;2.33;;
64716;SDS011;51146;50.274;19.000;2022-09-11T13:05:41;3.83;;;2.25;;
64716;SDS011;51146;50.274;19.000;2022-09-11T13:08:13;2.75;;;2.25;;
64716;SDS011;51146;50.274;19.000;2022-09-11T13:10:47;3.25;;;2.83;;
64716;SDS011;51146;50.274;19.000;2022-09-11T13:21:38;2.67;;;2.22;;
64716;SDS011;51146;50.274;19.000;2022-09-11T13:27:16;4.78;;;2.60;;
64716;SDS011;51146;50.274;19.000;2022-09-11T13:29:49;4.95;;;2.58;;
64716;SDS011;51146;50.274;19.000;2022-09-11T13:32:20;3.35;;;3.05;;
64716;SDS011;51146;50.274;19.000;2022-09-11T13:34:48;2.90;;;2.60;;
64716;SDS011;51146;50.274;19.000;2022-09-11T13:37:28;2.78;;;2.58;;
64716;SDS011;51146;50.274;19.000;2022-09-11T13:40:03;3.65;;;2.80;;
64716;SDS011;51146;50.274;19.000;2022-09-11T13:42:33;4.95;;;2.78;;
64716;SDS011;51146;50.274;19.000;2022-09-11T13:45:01;4.28;;;2.50;;
64716;SDS011;51146;50.274;19.000;2022-09-11T13:47:29;3.55;;;2.67;;
64716;SDS011;51146;50.274;19.000;2022-09-11T13:50:00;3.90;;;3.00;;
64716;SDS011;51146;50.274;19.000;2022-09-11T13:52:32;4.05;;;3.00;;
64716;SDS011;51146;50.274;19.000;2022-09-11T13:55:07;4.13;;;3.07;;
64716;SDS011;51146;50.274;19.000;2022-09-11T13:57:50;4.65;;;4.03;;
64716;SDS011;51146;50.274;19.000;2022-09-11T14:03:24;4.05;;;3.40;;
64716;SDS011;51146;50.274;19.000;2022-09-11T14:05:59;3.20;;;2.85;;
64716;SDS011;51146;50.274;19.000;2022-09-11T14:11:07;4.43;;;3.10;;
64716;SDS011;51146;50.274;19.000;2022-09-11T14:13:47;3.45;;;2.90;;
64716;SDS011;51146;50.274;19.000;2022-09-11T14:18:55;4.05;;;3.33;;
64716;SDS011;51146;50.274;19.000;2022-09-11T14:21:30;5.35;;;3.40;;
64716;SDS011;51146;50.274;19.000;2022-09-11T14:24:00;4.20;;;3.50;;
64716;SDS011;51146;50.274;19.000;2022-09-11T14:28:59;3.65;;;3.35;;
64716;SDS011;51146;50.274;19.000;2022-09-11T14:31:39;4.63;;;3.47;;
64716;SDS011;51146;50.274;19.000;2022-09-11T14:34:25;5.03;;;3.88;;
64716;SDS011;51146;50.274;19.000;2022-09-11T14:37:11;6.05;;;4.13;;
64716;SDS011;51146;50.274;19.000;2022-09-11T14:39:44;7.85;;;4.30;;
64716;SDS011;51146;50.274;19.000;2022-09-11T14:42:19;6.25;;;4.50;;
64716;SDS011;51146;50.274;19.000;2022-09-11T14:44:49;5.75;;;4.43;;
64716;SDS011;51146;50.274;19.000;2022-09-11T14:47:18;8.20;;;4.13;;
64716;SDS011;51146;50.274;19.000;2022-09-11T14:49:47;5.55;;;4.00;;
64716;SDS011;51146;50.274;19.000;2022-09-11T14:52:16;10.15;;;4.70;;
64716;SDS011;51146;50.274;19.000;2022-09-11T14:54:45;10.90;;;9.65;;
64716;SDS011;51146;50.274;19.000;2022-09-11T14:57:13;8.30;;;7.50;;
64716;SDS011;51146;50.274;19.000;2022-09-11T14:59:46;9.65;;;8.20;;
64716;SDS011;51146;50.274;19.000;2022-09-11T15:02:17;7.80;;;7.00;;
64716;SDS011;51146;50.274;19.000;2022-09-11T15:04:51;6.25;;;4.40;;
64716;SDS011;51146;50.274;19.000;2022-09-11T15:07:20;5.20;;;4.60;;
64716;SDS011;51146;50.274;19.000;2022-09-11T15:09:48;6.55;;;4.72;;
64716;SDS011;51146;50.274;19.000;2022-09-11T15:12:16;4.82;;;4.18;;
64716;SDS011;51146;50.274;19.000;2022-09-11T15:14:44;5.18;;;4.65;;
64716;SDS011;51146;50.274;19.000;2022-09-11T15:17:22;7.13;;;4.25;;
64716;SDS011;51146;50.274;19.000;2022-09-11T15:19:50;6.97;;;5.47;;
64716;SDS011;51146;50.274;19.000;2022-09-11T15:22:18;8.15;;;7.28;;
64716;SDS011;51146;50.274;19.000;2022-09-11T15:24:45;9.43;;;7.82;;
64716;SDS011;51146;50.274;19.000;2022-09-11T15:27:12;11.45;;;9.40;;
64716;SDS011;51146;50.274;19.000;2022-09-11T15:29:40;15.07;;;13.55;;
64716;SDS011;51146;50.274;19.000;2022-09-11T15:32:08;20.00;;;18.10;;
64716;SDS011;51146;50.274;19.000;2022-09-11T15:34:36;21.25;;;19.02;;
64716;SDS011;51146;50.274;19.000;2022-09-11T15:37:03;18.83;;;16.15;;
64716;SDS011;51146;50.274;19.000;2022-09-11T15:39:31;21.08;;;19.02;;
64716;SDS011;51146;50.274;19.000;2022-09-11T15:41:59;26.23;;;20.20;;
64716;SDS011;51146;50.274;19.000;2022-09-11T15:44:27;20.48;;;17.55;;
64716;SDS011;51146;50.274;19.000;2022-09-11T15:46:54;26.27;;;23.58;;
64716;SDS011;51146;50.274;19.000;2022-09-11T15:49:24;22.27;;;19.48;;
64716;SDS011;51146;50.274;19.000;2022-09-11T15:51:55;20.05;;;17.50;;
64716;SDS011;51146;50.274;19.000;2022-09-11T15:54:22;24.17;;;21.50;;
64716;SDS011;51146;50.274;19.000;2022-09-11T15:56:49;23.08;;;20.08;;
64716;SDS011;51146;50.274;19.000;2022-09-11T15:59:17;19.70;;;17.77;;
64716;SDS011;51146;50.274;19.000;2022-09-11T16:01:44;23.70;;;21.10;;
64716;SDS011;51146;50.274;19.000;2022-09-11T16:04:12;29.80;;;24.83;;
64716;SDS011;51146;50.274;19.000;2022-09-11T16:06:41;24.92;;;22.33;;
64716;SDS011;51146;50.274;19.000;2022-09-11T16:09:13;21.30;;;18.20;;
64716;SDS011;51146;50.274;19.000;2022-09-11T16:11:42;19.33;;;17.25;;
64716;SDS011;51146;50.274;19.000;2022-09-11T16:14:16;21.13;;;18.77;;
64716;SDS011;51146;50.274;19.000;2022-09-11T16:16:45;15.90;;;12.63;;
64716;SDS011;51146;50.274;19.000;2022-09-11T16:19:16;15.45;;;11.25;;
64716;SDS011;51146;50.274;19.000;2022-09-11T16:21:44;14.40;;;11.25;;
64716;SDS011;51146;50.274;19.000;2022-09-11T16:24:12;16.52;;;12.75;;
64716;SDS011;51146;50.274;19.000;2022-09-11T16:26:41;14.50;;;10.70;;
64716;SDS011;51146;50.274;19.000;2022-09-11T16:29:09;14.90;;;9.65;;
64716;SDS011;51146;50.274;19.000;2022-09-11T16:31:40;10.73;;;9.02;;
64716;SDS011;51146;50.274;19.000;2022-09-11T16:34:09;9.87;;;8.87;;
64716;SDS011;51146;50.274;19.000;2022-09-11T16:36:40;9.18;;;7.43;;
64716;SDS011;51146;50.274;19.000;2022-09-11T16:39:09;11.40;;;8.60;;
64716;SDS011;51146;50.274;19.000;2022-09-11T16:41:37;10.25;;;8.30;;
64716;SDS011;51146;50.274;19.000;2022-09-11T16:44:05;14.13;;;8.88;;
64716;SDS011;51146;50.274;19.000;2022-09-11T16:46:35;11.82;;;7.35;;
64716;SDS011;51146;50.274;19.000;2022-09-11T16:49:02;9.45;;;7.38;;
64716;SDS011;51146;50.274;19.000;2022-09-11T16:51:31;10.85;;;8.55;;
64716;SDS011;51146;50.274;19.000;2022-09-11T16:53:59;12.38;;;10.25;;
64716;SDS011;51146;50.274;19.000;2022-09-11T16:56:27;13.65;;;12.25;;
64716;SDS011;51146;50.274;19.000;2022-09-11T16:58:56;12.18;;;10.88;;
64716;SDS011;51146;50.274;19.000;2022-09-11T17:01:26;10.77;;;9.68;;
64716;SDS011;51146;50.274;19.000;2022-09-11T17:03:54;11.25;;;9.40;;
64716;SDS011;51146;50.274;19.000;2022-09-11T17:06:22;14.90;;;12.30;;
64716;SDS011;51146;50.274;19.000;2022-09-11T17:08:57;12.30;;;10.27;;
64716;SDS011;51146;50.274;19.000;2022-09-11T17:11:27;11.27;;;10.00;;
64716;SDS011;51146;50.274;19.000;2022-09-11T17:13:56;12.60;;;10.90;;
64716;SDS011;51146;50.274;19.000;2022-09-11T17:16:25;11.35;;;9.90;;
64716;SDS011;51146;50.274;19.000;2022-09-11T17:18:55;14.18;;;10.63;;
64716;SDS011;51146;50.274;19.000;2022-09-11T17:21:23;10.90;;;9.45;;
64716;SDS011;51146;50.274;19.000;2022-09-11T17:23:52;8.77;;;7.57;;
64716;SDS011;51146;50.274;19.000;2022-09-11T17:26:20;9.50;;;8.33;;
64716;SDS011;51146;50.274;19.000;2022-09-11T17:28:48;7.07;;;6.13;;
64716;SDS011;51146;50.274;19.000;2022-09-11T17:31:17;9.07;;;6.22;;
64716;SDS011;51146;50.274;19.000;2022-09-11T17:33:46;8.48;;;7.30;;